aviador You're here:

KBKB Decoded Metar

FULLERTON/POLK in LA, USA
Report Time2018-05-23 15:54:00
UTC Time2018-05-23 16:51:38
Flight Rules vfr VFR
WindCalm
Visibility9999 m
Phenomena:N/A
Clouds:Few 028 Hf
Expected CloudBase > 2,800 ft AGL from Temp-Dew spread
CeilingNone
Temp29°C (ISA +15)
Dew Point22°C (66% RH)
Heat Index32.0°C
QNH1018 hPa
Density Alt2,165 ft
Elevation308 ft
Report Wrong Elevation
Raw Report
KBKB 231554Z AUTO 00000KT 10SM FEW028 29/22 A3007 RMK AO2 SLP206
T02890217 $=

Extra information for KBKB:More info

Metar Taf Metar & Taf Last 4 Metars F.Rules Stats Wind Profile Meteogram Temp Stats Airport Information Weather charts Add Link Nearby VenuesMetar ALERT Operation Metar Decoded Social comments

AIRNAV info for KBKB